createdAt,value
2019-01-20T00:00:08.913Z,25.30
2019-01-20T00:01:08.934Z,24.40
2019-01-20T00:02:08.957Z,25.10
2019-01-20T00:03:08.978Z,24.00
2019-01-20T00:04:08.999Z,24.30
2019-01-20T00:05:09.022Z,24.70
2019-01-20T00:06:09.043Z,27.00
2019-01-20T00:07:09.064Z,26.60
2019-01-20T00:08:09.087Z,25.20
2019-01-20T00:09:09.110Z,26.30
2019-01-20T00:10:09.129Z,26.10
2019-01-20T00:11:16.367Z,27.70
2019-01-20T00:12:09.174Z,27.70
2019-01-20T00:13:09.198Z,25.50
2019-01-20T00:14:09.216Z,26.10
2019-01-20T00:15:09.238Z,25.40
2019-01-20T00:16:09.261Z,24.80
2019-01-20T00:17:09.282Z,26.40
2019-01-20T00:18:09.303Z,26.50
2019-01-20T00:19:09.326Z,26.40
2019-01-20T00:20:09.379Z,27.30
2019-01-20T00:21:09.369Z,27.80
2019-01-20T00:22:09.390Z,26.80
2019-01-20T00:23:09.413Z,25.00
2019-01-20T00:24:09.435Z,25.90
2019-01-20T00:25:09.496Z,26.20
2019-01-20T00:26:09.477Z,25.90
2019-01-20T00:27:09.500Z,25.70
2019-01-20T00:28:09.522Z,25.50
2019-01-20T00:29:09.544Z,25.80
2019-01-20T00:30:09.564Z,24.50
2019-01-20T00:31:09.587Z,26.60
2019-01-20T00:32:09.609Z,25.70
2019-01-20T00:33:09.629Z,25.90
2019-01-20T00:34:09.669Z,25.80
2019-01-20T00:35:09.674Z,26.10
2019-01-20T00:36:09.696Z,25.80
2019-01-20T00:37:09.718Z,25.60
2019-01-20T00:38:09.740Z,24.80
2019-01-20T00:39:09.761Z,26.30
2019-01-20T00:40:09.784Z,24.60
2019-01-20T00:41:09.805Z,25.20
2019-01-20T00:42:09.826Z,25.40
2019-01-20T00:43:09.848Z,26.20
2019-01-20T00:44:09.870Z,25.10
2019-01-20T00:45:09.903Z,24.70
2019-01-20T00:46:09.913Z,24.40
2019-01-20T00:47:09.935Z,24.60
2019-01-20T00:48:09.958Z,25.60
2019-01-20T00:49:09.979Z,25.00
2019-01-20T00:50:10.001Z,24.00
2019-01-20T00:51:10.024Z,25.90
2019-01-20T00:52:10.046Z,25.00
2019-01-20T00:53:10.068Z,24.90
2019-01-20T00:54:10.090Z,23.50
2019-01-20T00:55:10.111Z,23.70
2019-01-20T00:56:10.133Z,24.00
2019-01-20T00:57:10.155Z,23.90
2019-01-20T00:58:10.178Z,24.10
2019-01-20T00:59:10.199Z,24.60
2019-01-20T01:00:10.221Z,23.80
2019-01-20T01:01:10.243Z,24.00
2019-01-20T01:02:10.266Z,24.20
2019-01-20T01:03:10.288Z,24.40
2019-01-20T01:04:10.310Z,26.40
2019-01-20T01:05:10.332Z,24.30
2019-01-20T01:06:10.357Z,24.60
2019-01-20T01:07:10.375Z,23.30
2019-01-20T01:08:10.397Z,24.50
2019-01-20T01:09:10.419Z,25.20
2019-01-20T01:10:10.441Z,24.30
2019-01-20T01:11:10.462Z,23.40
2019-01-20T01:12:10.487Z,23.80
2019-01-20T01:13:10.508Z,22.40
2019-01-20T01:14:10.529Z,24.00
2019-01-20T01:15:10.555Z,22.70
2019-01-20T01:16:10.574Z,23.40
2019-01-20T01:17:10.596Z,23.20
2019-01-20T01:18:10.618Z,23.60
2019-01-20T01:19:10.640Z,24.20
2019-01-20T01:20:10.661Z,24.40
2019-01-20T01:21:10.685Z,23.80
2019-01-20T01:22:10.707Z,23.10
2019-01-20T01:23:10.729Z,24.10
2019-01-20T01:24:10.751Z,23.50
2019-01-20T01:25:10.774Z,24.20
2019-01-20T01:26:10.795Z,23.20
2019-01-20T01:27:10.818Z,23.50
2019-01-20T01:28:10.841Z,23.50
2019-01-20T01:29:10.862Z,23.70
2019-01-20T01:30:10.884Z,22.40
2019-01-20T01:31:10.906Z,22.80
2019-01-20T01:32:10.929Z,22.60
2019-01-20T01:33:10.952Z,23.40
2019-01-20T01:34:10.973Z,22.60
2019-01-20T01:35:10.995Z,23.50
2019-01-20T01:36:11.018Z,22.40
2019-01-20T01:37:11.041Z,21.70
2019-01-20T01:38:11.062Z,22.90
2019-01-20T01:39:11.088Z,22.60
2019-01-20T01:40:11.108Z,23.00
2019-01-20T01:41:11.130Z,22.20
2019-01-20T01:42:11.158Z,22.90
2019-01-20T01:43:11.173Z,22.30
2019-01-20T01:44:11.197Z,22.40
2019-01-20T01:45:11.219Z,22.00
2019-01-20T01:46:11.241Z,22.80
2019-01-20T01:47:11.264Z,22.20
2019-01-20T01:48:11.286Z,21.80
2019-01-20T01:49:11.308Z,22.30
2019-01-20T01:50:11.331Z,22.40
2019-01-20T01:51:11.354Z,20.90
2019-01-20T01:52:11.374Z,22.70
2019-01-20T01:53:11.398Z,22.30
2019-01-20T01:54:11.421Z,22.70
2019-01-20T01:55:11.443Z,23.40
2019-01-20T01:56:11.465Z,22.70
2019-01-20T01:57:11.489Z,21.70
2019-01-20T01:58:11.510Z,21.40
2019-01-20T01:59:11.532Z,22.40
2019-01-20T02:00:11.557Z,22.90
2019-01-20T02:01:11.580Z,23.00
2019-01-20T02:02:11.601Z,22.00
2019-01-20T02:03:11.623Z,22.90
2019-01-20T02:04:11.646Z,23.10
2019-01-20T02:05:11.668Z,23.30
2019-01-20T02:06:11.694Z,22.10
2019-01-20T02:07:11.712Z,22.70
2019-01-20T02:08:11.736Z,22.60
2019-01-20T02:09:11.761Z,21.60
2019-01-20T02:10:11.781Z,22.50
2019-01-20T02:11:11.804Z,21.50
2019-01-20T02:12:11.826Z,22.50
2019-01-20T02:13:11.850Z,23.20
2019-01-20T02:14:11.873Z,22.20
2019-01-20T02:15:11.894Z,22.20
2019-01-20T02:16:11.918Z,20.80
2019-01-20T02:17:11.940Z,20.80
2019-01-20T02:18:11.965Z,19.90
2019-01-20T02:19:11.986Z,20.90
2019-01-20T02:20:12.008Z,21.90
2019-01-20T02:21:12.032Z,20.80
2019-01-20T02:22:12.054Z,21.30
2019-01-20T02:23:12.076Z,21.50
2019-01-20T02:24:12.099Z,22.40
2019-01-20T02:25:12.123Z,21.40
2019-01-20T02:26:12.144Z,21.20
2019-01-20T02:27:12.168Z,21.80
2019-01-20T02:28:12.190Z,21.40
2019-01-20T02:29:12.213Z,22.10
2019-01-20T02:30:12.241Z,21.60
2019-01-20T02:31:12.260Z,21.00
2019-01-20T02:32:12.287Z,21.90
2019-01-20T02:33:12.304Z,21.40
2019-01-20T02:34:12.327Z,22.40
2019-01-20T02:35:12.350Z,22.20
2019-01-20T02:36:12.373Z,21.60
2019-01-20T02:37:12.397Z,20.70
2019-01-20T02:38:12.420Z,20.80
2019-01-20T02:39:12.442Z,20.80
2019-01-20T02:40:12.466Z,21.20
2019-01-20T02:41:12.487Z,21.30
2019-01-20T02:42:12.512Z,21.90
2019-01-20T02:43:12.537Z,20.70
2019-01-20T02:44:12.555Z,21.30
2019-01-20T02:45:12.578Z,22.50
2019-01-20T02:46:12.603Z,21.20
2019-01-20T02:47:12.625Z,22.40
2019-01-20T02:48:12.647Z,22.10
2019-01-20T02:49:12.671Z,21.60
2019-01-20T02:50:12.697Z,21.60
2019-01-20T02:51:12.715Z,23.30
2019-01-20T02:52:12.737Z,23.20
2019-01-20T02:53:12.761Z,22.20
2019-01-20T02:54:12.784Z,22.60
2019-01-20T02:55:12.806Z,23.70
2019-01-20T02:56:12.829Z,24.30
2019-01-20T02:57:12.852Z,23.20
2019-01-20T02:58:12.875Z,22.90
2019-01-20T02:59:12.897Z,23.30
2019-01-20T03:00:12.921Z,24.80
2019-01-20T03:01:12.943Z,25.20
2019-01-20T03:02:12.967Z,23.70
2019-01-20T03:03:12.988Z,24.40
2019-01-20T03:04:13.012Z,25.90
2019-01-20T03:05:13.034Z,24.70
2019-01-20T03:06:13.059Z,24.70
2019-01-20T03:07:13.079Z,25.30
2019-01-20T03:08:13.102Z,25.20
2019-01-20T03:09:13.126Z,25.60
2019-01-20T03:10:13.146Z,25.60
2019-01-20T03:11:13.170Z,26.30
2019-01-20T03:12:13.192Z,27.10
2019-01-20T03:13:13.215Z,26.80
2019-01-20T03:14:13.238Z,27.30
2019-01-20T03:15:13.260Z,27.50
2019-01-20T03:16:13.284Z,27.30
2019-01-20T03:17:13.306Z,25.80
2019-01-20T03:18:13.330Z,26.80
2019-01-20T03:19:13.351Z,27.00
2019-01-20T03:20:13.383Z,28.20
2019-01-20T03:21:13.397Z,27.30
2019-01-20T03:22:13.419Z,27.50
2019-01-20T03:23:13.442Z,28.90
2019-01-20T03:24:13.464Z,28.50
2019-01-20T03:25:13.490Z,29.00
2019-01-20T03:26:13.510Z,29.70
2019-01-20T03:27:13.535Z,30.10
2019-01-20T03:28:13.561Z,30.70
2019-01-20T03:29:13.579Z,31.80
2019-01-20T03:30:13.601Z,31.80
2019-01-20T03:31:13.629Z,33.40
2019-01-20T03:32:13.648Z,32.40
2019-01-20T03:33:13.674Z,30.60
2019-01-20T03:34:13.692Z,33.00
2019-01-20T03:35:13.713Z,33.20
2019-01-20T03:36:13.737Z,33.20
2019-01-20T03:37:13.759Z,33.10
2019-01-20T03:38:13.781Z,33.80
2019-01-20T03:39:13.804Z,33.70
2019-01-20T03:40:13.826Z,34.70
2019-01-20T03:41:13.852Z,33.60
2019-01-20T03:42:13.872Z,34.70
2019-01-20T03:43:13.893Z,33.50
2019-01-20T03:44:13.917Z,33.90
2019-01-20T03:45:13.940Z,34.00
2019-01-20T03:46:13.960Z,35.40
2019-01-20T03:47:13.985Z,33.70
2019-01-20T03:48:14.007Z,34.30
2019-01-20T03:49:14.031Z,34.00
2019-01-20T03:50:14.052Z,33.00
2019-01-20T03:51:14.075Z,33.40
2019-01-20T03:52:14.099Z,31.70
2019-01-20T03:53:14.121Z,32.30
2019-01-20T03:54:14.143Z,32.90
2019-01-20T03:55:14.169Z,33.40
2019-01-20T03:56:14.190Z,31.20
2019-01-20T03:57:14.216Z,32.60
2019-01-20T03:58:14.233Z,32.80
2019-01-20T03:59:14.259Z,31.70
2019-01-20T04:00:14.281Z,32.90
2019-01-20T04:01:14.303Z,33.00
2019-01-20T04:02:14.324Z,33.60
2019-01-20T04:03:14.350Z,32.40
2019-01-20T04:04:14.372Z,33.80
2019-01-20T04:05:14.393Z,32.70
2019-01-20T04:06:14.416Z,32.30
2019-01-20T04:07:14.438Z,31.00
2019-01-20T04:08:14.461Z,31.00
2019-01-20T04:09:14.485Z,32.60
2019-01-20T04:10:14.507Z,32.30
2019-01-20T04:11:14.531Z,29.60
2019-01-20T04:12:20.465Z,29.20
2019-01-20T04:13:14.575Z,29.70
2019-01-20T04:14:14.597Z,29.60
2019-01-20T04:15:14.625Z,29.40
2019-01-20T04:16:14.643Z,27.70
2019-01-20T04:17:14.670Z,29.60
2019-01-20T04:18:14.688Z,29.10
2019-01-20T04:19:14.717Z,28.40
2019-01-20T04:20:14.734Z,30.20
2019-01-20T04:21:14.761Z,27.80
2019-01-20T04:22:14.779Z,28.30
2019-01-20T04:23:14.806Z,29.50
2019-01-20T04:24:14.825Z,28.50
2019-01-20T04:25:14.849Z,28.30
2019-01-20T04:26:14.870Z,27.30
2019-01-20T04:27:14.894Z,28.10
2019-01-20T04:28:14.916Z,27.80
2019-01-20T04:29:14.940Z,27.00
2019-01-20T04:30:14.961Z,26.80
2019-01-20T04:31:14.986Z,27.10
2019-01-20T04:32:15.007Z,27.70
2019-01-20T04:33:15.031Z,27.00
2019-01-20T04:34:15.052Z,26.60
2019-01-20T04:35:15.081Z,26.40
2019-01-20T04:36:15.098Z,28.00
2019-01-20T04:37:15.122Z,27.60
2019-01-20T04:38:15.144Z,27.80
2019-01-20T04:39:15.166Z,26.90
2019-01-20T04:40:15.191Z,26.40
2019-01-20T04:41:15.212Z,27.20
2019-01-20T04:42:15.236Z,26.20
2019-01-20T04:43:15.256Z,28.20
2019-01-20T04:44:15.281Z,26.50
2019-01-20T04:45:15.303Z,26.40
2019-01-20T04:46:15.326Z,24.10
2019-01-20T04:47:15.401Z,25.70
2019-01-20T04:48:15.372Z,25.30
2019-01-20T04:49:15.396Z,26.00
2019-01-20T04:50:15.416Z,25.00
2019-01-20T04:51:15.440Z,25.30
2019-01-20T04:52:15.463Z,25.70
2019-01-20T04:53:15.491Z,24.30
2019-01-20T04:54:15.508Z,25.00
2019-01-20T04:55:15.531Z,23.40
2019-01-20T04:56:15.554Z,23.90
2019-01-20T04:57:15.578Z,26.10
2019-01-20T04:58:15.600Z,26.30
2019-01-20T04:59:15.623Z,24.80
2019-01-20T05:00:15.647Z,25.20
2019-01-20T05:01:15.670Z,26.20
2019-01-20T05:02:15.698Z,26.10
2019-01-20T05:03:15.716Z,26.20
2019-01-20T05:04:15.741Z,27.70
2019-01-20T05:05:15.761Z,26.80
2019-01-20T05:06:15.788Z,26.20
2019-01-20T05:07:15.808Z,26.40
2019-01-20T05:08:15.830Z,24.70
2019-01-20T05:09:15.853Z,26.10
2019-01-20T05:10:15.878Z,26.90
2019-01-20T05:11:15.899Z,27.40
2019-01-20T05:12:15.922Z,26.80
2019-01-20T05:13:15.946Z,27.20
2019-01-20T05:14:15.969Z,26.80
2019-01-20T05:15:15.992Z,25.30
2019-01-20T05:16:16.014Z,25.50
2019-01-20T05:17:16.038Z,25.00
2019-01-20T05:18:16.060Z,24.90
2019-01-20T05:19:16.085Z,25.00
2019-01-20T05:20:16.112Z,24.80
2019-01-20T05:21:16.132Z,26.30
2019-01-20T05:22:16.153Z,25.50
2019-01-20T05:23:16.193Z,25.70
2019-01-20T05:24:16.200Z,26.30
2019-01-20T05:25:16.222Z,26.80
2019-01-20T05:26:16.253Z,26.50
2019-01-20T05:27:16.269Z,25.40
2019-01-20T05:28:16.291Z,24.90
2019-01-20T05:29:16.313Z,26.40
2019-01-20T05:30:16.339Z,24.10
2019-01-20T05:31:16.361Z,25.90
2019-01-20T05:32:16.383Z,25.10
2019-01-20T05:33:16.406Z,25.30
2019-01-20T05:34:16.429Z,26.30
2019-01-20T05:35:16.460Z,26.50
2019-01-20T05:36:16.475Z,24.70
2019-01-20T05:37:16.500Z,25.00
2019-01-20T05:38:16.521Z,25.70
2019-01-20T05:39:16.544Z,25.50
2019-01-20T05:40:17.486Z,24.90
2019-01-20T05:41:16.591Z,25.30
2019-01-20T05:42:16.614Z,26.60
2019-01-20T05:43:16.650Z,26.40
2019-01-20T05:44:16.662Z,26.10
2019-01-20T05:45:16.685Z,25.60
2019-01-20T05:46:16.704Z,26.70
2019-01-20T05:47:16.730Z,26.00
2019-01-20T05:48:16.757Z,24.80
2019-01-20T05:49:16.776Z,26.20
2019-01-20T05:50:16.798Z,25.70
2019-01-20T05:51:16.822Z,25.00
2019-01-20T05:52:16.845Z,25.90
2019-01-20T05:53:16.869Z,25.80
2019-01-20T05:54:16.893Z,27.00
2019-01-20T05:55:16.918Z,26.60
2019-01-20T05:56:16.937Z,24.90
2019-01-20T05:57:16.959Z,25.90
2019-01-20T05:58:16.983Z,25.40
2019-01-20T05:59:17.005Z,25.80
2019-01-20T06:00:17.032Z,25.70
2019-01-20T06:01:17.053Z,25.10
2019-01-20T06:02:17.073Z,27.00
2019-01-20T06:03:17.103Z,26.60
2019-01-20T06:04:17.122Z,25.60
2019-01-20T06:05:17.145Z,26.60
2019-01-20T06:06:17.167Z,26.80
2019-01-20T06:07:17.190Z,26.00
2019-01-20T06:08:17.222Z,26.10
2019-01-20T06:09:17.240Z,25.10
2019-01-20T06:10:17.260Z,25.70
2019-01-20T06:11:17.283Z,25.80
2019-01-20T06:12:17.306Z,26.10
2019-01-20T06:13:17.328Z,26.10
2019-01-20T06:14:17.351Z,26.30
2019-01-20T06:15:17.374Z,25.80
2019-01-20T06:16:17.396Z,26.70
2019-01-20T06:17:17.422Z,26.00
2019-01-20T06:18:17.452Z,26.10
2019-01-20T06:19:17.467Z,25.60
2019-01-20T06:20:17.489Z,25.40
2019-01-20T06:21:17.512Z,26.40
2019-01-20T06:22:17.536Z,28.10
2019-01-20T06:23:17.558Z,26.50
2019-01-20T06:24:17.582Z,26.60
2019-01-20T06:25:17.634Z,27.00
2019-01-20T06:26:17.630Z,26.00
2019-01-20T06:27:17.649Z,27.70
2019-01-20T06:28:17.672Z,26.30
2019-01-20T06:29:17.697Z,26.40
2019-01-20T06:30:17.718Z,27.20
2019-01-20T06:31:17.740Z,26.80
2019-01-20T06:32:17.764Z,28.40
2019-01-20T06:33:17.786Z,27.50
2019-01-20T06:34:17.808Z,29.10
2019-01-20T06:35:17.833Z,27.30
2019-01-20T06:36:17.857Z,26.90
2019-01-20T06:37:17.878Z,28.00
2019-01-20T06:38:17.900Z,30.00
2019-01-20T06:39:17.922Z,29.80
2019-01-20T06:40:17.945Z,31.20
2019-01-20T06:41:17.968Z,32.30
2019-01-20T06:42:17.990Z,31.40
2019-01-20T06:43:18.014Z,31.70
2019-01-20T06:44:18.036Z,32.20
2019-01-20T06:45:18.059Z,32.30
2019-01-20T06:46:18.082Z,32.20
2019-01-20T06:47:18.104Z,32.90
2019-01-20T06:48:18.127Z,34.00
2019-01-20T06:49:18.152Z,33.70
2019-01-20T06:50:18.173Z,34.50
2019-01-20T06:51:18.194Z,34.60
2019-01-20T06:52:18.217Z,33.30
2019-01-20T06:53:18.240Z,33.40
2019-01-20T06:54:18.262Z,32.70
2019-01-20T06:55:18.284Z,33.70
2019-01-20T06:56:18.307Z,32.50
2019-01-20T06:57:18.330Z,36.20
2019-01-20T06:58:18.352Z,36.40
2019-01-20T06:59:18.375Z,35.30
2019-01-20T07:00:18.399Z,35.80
2019-01-20T07:01:18.420Z,38.00
2019-01-20T07:02:18.442Z,36.50
2019-01-20T07:03:18.463Z,35.60
2019-01-20T07:04:18.487Z,34.50
2019-01-20T07:05:18.514Z,36.70
2019-01-20T07:06:18.532Z,37.00
2019-01-20T07:07:18.555Z,36.60
2019-01-20T07:08:18.578Z,35.70
2019-01-20T07:09:18.600Z,37.60
2019-01-20T07:10:18.622Z,37.50
2019-01-20T07:11:18.643Z,37.60
2019-01-20T07:12:18.668Z,36.90
2019-01-20T07:13:18.693Z,38.80
2019-01-20T07:14:18.713Z,38.50
2019-01-20T07:15:18.738Z,39.60
2019-01-20T07:16:18.758Z,39.40
2019-01-20T07:17:18.785Z,40.50
2019-01-20T07:18:18.802Z,41.60
2019-01-20T07:19:18.826Z,37.60
2019-01-20T07:20:18.849Z,36.40
2019-01-20T07:21:18.874Z,36.80
2019-01-20T07:22:18.893Z,38.30
2019-01-20T07:23:18.916Z,39.50
2019-01-20T07:24:18.938Z,34.90
2019-01-20T07:25:18.963Z,33.00
2019-01-20T07:26:18.984Z,35.20
2019-01-20T07:27:19.012Z,35.50
2019-01-20T07:28:19.030Z,36.30
2019-01-20T07:29:19.052Z,37.20
2019-01-20T07:30:19.073Z,38.70
2019-01-20T07:31:19.098Z,37.40
2019-01-20T07:32:19.120Z,37.10
2019-01-20T07:33:19.145Z,38.80
2019-01-20T07:34:19.166Z,40.20
2019-01-20T07:35:19.188Z,36.90
2019-01-20T07:36:19.211Z,37.20
2019-01-20T07:37:19.236Z,38.10
2019-01-20T07:38:19.257Z,38.30
2019-01-20T07:39:19.280Z,38.40
2019-01-20T07:40:19.334Z,38.70
2019-01-20T07:41:19.327Z,38.30
2019-01-20T07:42:19.347Z,39.10
2019-01-20T07:43:19.370Z,38.60
2019-01-20T07:44:19.393Z,37.70
2019-01-20T07:45:19.416Z,37.90
2019-01-20T07:46:19.439Z,37.00
2019-01-20T07:47:19.465Z,36.80
2019-01-20T07:48:19.490Z,35.60
2019-01-20T07:49:19.508Z,33.10
2019-01-20T07:50:19.530Z,32.60
2019-01-20T07:51:19.554Z,32.80
2019-01-20T07:52:19.577Z,31.30
2019-01-20T07:53:19.602Z,29.60
2019-01-20T07:54:19.622Z,28.90
2019-01-20T07:55:19.645Z,29.10
2019-01-20T07:56:19.668Z,27.60
2019-01-20T07:57:19.693Z,28.30
2019-01-20T07:58:19.713Z,26.80
2019-01-20T07:59:19.738Z,29.40
2019-01-20T08:00:19.760Z,28.70
2019-01-20T08:01:19.784Z,28.10
2019-01-20T08:02:19.806Z,29.20
2019-01-20T08:03:19.828Z,28.10
2019-01-20T08:04:19.852Z,27.00
2019-01-20T08:05:19.927Z,28.60
2019-01-20T08:06:19.897Z,28.40
2019-01-20T08:07:19.921Z,28.50
2019-01-20T08:08:19.995Z,29.30
2019-01-20T08:09:19.971Z,28.80
2019-01-20T08:10:19.991Z,27.60
2019-01-20T08:11:20.014Z,29.10
2019-01-20T08:12:23.549Z,29.40
2019-01-20T08:13:24.215Z,28.10
2019-01-20T08:14:20.087Z,29.40
2019-01-20T08:15:20.111Z,29.40
2019-01-20T08:16:20.131Z,29.90
2019-01-20T08:17:20.154Z,30.90
2019-01-20T08:18:20.176Z,31.50
2019-01-20T08:19:20.204Z,32.60
2019-01-20T08:20:20.224Z,31.70
2019-01-20T08:21:20.248Z,31.80
2019-01-20T08:22:20.270Z,30.80
2019-01-20T08:23:20.294Z,31.10
2019-01-20T08:24:20.320Z,30.20
2019-01-20T08:25:20.342Z,32.40
2019-01-20T08:26:20.364Z,35.60
2019-01-20T08:27:20.388Z,33.70
2019-01-20T08:28:20.412Z,34.30
2019-01-20T08:29:20.436Z,35.50
2019-01-20T08:30:20.460Z,33.70
2019-01-20T08:31:20.481Z,38.20
2019-01-20T08:32:20.507Z,46.10
2019-01-20T08:33:20.531Z,46.50
2019-01-20T08:34:20.553Z,42.00
2019-01-20T08:35:20.576Z,38.70
2019-01-20T08:36:20.601Z,40.80
2019-01-20T08:37:20.627Z,40.30
2019-01-20T08:38:20.652Z,40.60
2019-01-20T08:39:20.672Z,44.00
2019-01-20T08:40:20.697Z,40.60
2019-01-20T08:41:20.723Z,41.30
2019-01-20T08:42:20.744Z,38.40
2019-01-20T08:43:20.768Z,40.90
2019-01-20T08:44:20.794Z,41.80
2019-01-20T08:45:20.817Z,39.40
2019-01-20T08:46:20.840Z,41.20
2019-01-20T08:47:20.866Z,42.40
2019-01-20T08:48:20.893Z,42.10
2019-01-20T08:49:20.913Z,39.30
2019-01-20T08:50:20.936Z,37.50
2019-01-20T08:51:20.961Z,36.90
2019-01-20T08:52:20.985Z,36.20
2019-01-20T08:53:21.008Z,36.70
2019-01-20T08:54:21.033Z,37.00
2019-01-20T08:55:21.059Z,36.90
2019-01-20T08:56:21.083Z,36.70
2019-01-20T08:57:21.107Z,35.40
2019-01-20T08:58:21.130Z,35.40
2019-01-20T08:59:21.155Z,35.00
2019-01-20T09:00:21.179Z,35.70
2019-01-20T09:01:21.205Z,35.90
2019-01-20T09:02:21.227Z,36.20
2019-01-20T09:03:21.254Z,35.20
2019-01-20T09:04:21.278Z,38.10
2019-01-20T09:05:21.302Z,37.10
2019-01-20T09:06:21.375Z,36.40
2019-01-20T09:07:21.350Z,36.60
2019-01-20T09:08:21.376Z,36.10
2019-01-20T09:09:21.400Z,37.00
2019-01-20T09:10:21.424Z,36.50
2019-01-20T09:11:21.448Z,36.00
2019-01-20T09:12:21.473Z,37.50
2019-01-20T09:13:21.498Z,38.50
2019-01-20T09:14:21.521Z,36.10
2019-01-20T09:15:21.547Z,34.30
2019-01-20T09:16:21.572Z,36.50
2019-01-20T09:17:21.597Z,35.20
2019-01-20T09:18:21.620Z,34.80
2019-01-20T09:19:21.644Z,33.80
2019-01-20T09:20:21.670Z,33.10
2019-01-20T09:21:21.695Z,35.80
2019-01-20T09:22:21.719Z,35.40
2019-01-20T09:23:21.745Z,32.80
2019-01-20T09:24:21.770Z,33.70
2019-01-20T09:25:21.794Z,33.20
2019-01-20T09:26:21.818Z,32.20
2019-01-20T09:27:21.846Z,32.40
2019-01-20T09:28:21.869Z,33.50
2019-01-20T09:29:21.897Z,32.80
2019-01-20T09:30:21.920Z,33.20
2019-01-20T09:31:21.945Z,29.40
2019-01-20T09:32:21.972Z,28.80
2019-01-20T09:33:24.756Z,27.90
2019-01-20T09:34:22.021Z,26.90
2019-01-20T09:35:22.046Z,27.00
2019-01-20T09:36:22.070Z,25.50
2019-01-20T09:37:22.096Z,24.60
2019-01-20T09:38:22.124Z,24.40
2019-01-20T09:39:22.147Z,25.20
2019-01-20T09:40:22.175Z,25.20
2019-01-20T09:41:22.200Z,25.10
2019-01-20T09:42:22.224Z,23.80
2019-01-20T09:43:22.252Z,24.40
2019-01-20T09:44:22.277Z,26.70
2019-01-20T09:45:22.303Z,26.00
2019-01-20T09:46:22.328Z,28.50
2019-01-20T09:47:22.354Z,32.00
2019-01-20T09:48:22.381Z,30.60
2019-01-20T09:49:22.406Z,30.70
2019-01-20T09:50:22.432Z,30.60
2019-01-20T09:51:22.457Z,33.20
2019-01-20T09:52:22.483Z,33.90
2019-01-20T09:53:22.509Z,34.40
2019-01-20T09:54:22.538Z,34.30
2019-01-20T09:55:22.561Z,33.30
2019-01-20T09:56:22.590Z,32.80
2019-01-20T09:57:22.613Z,37.30
2019-01-20T09:58:22.639Z,39.10
2019-01-20T09:59:22.666Z,41.50
2019-01-20T10:00:22.693Z,39.70
2019-01-20T10:01:22.719Z,38.20
2019-01-20T10:02:22.743Z,40.00
2019-01-20T10:03:22.768Z,39.30
2019-01-20T10:04:22.796Z,40.60
2019-01-20T10:05:22.820Z,39.20
2019-01-20T10:06:22.857Z,37.80
2019-01-20T10:07:22.872Z,37.60
2019-01-20T10:08:22.896Z,36.10
2019-01-20T10:09:22.922Z,35.60
2019-01-20T10:10:22.948Z,36.70
2019-01-20T10:11:22.974Z,38.30
2019-01-20T10:12:23.000Z,38.80
2019-01-20T10:13:23.026Z,37.20
2019-01-20T10:14:23.052Z,38.70
2019-01-20T10:15:23.077Z,40.00
2019-01-20T10:16:23.102Z,38.10
2019-01-20T10:17:23.126Z,38.10
2019-01-20T10:18:23.152Z,38.60
2019-01-20T10:19:23.177Z,38.10
2019-01-20T10:20:23.204Z,37.90
2019-01-20T10:21:23.228Z,38.00
2019-01-20T10:22:23.254Z,36.60
2019-01-20T10:23:23.279Z,37.10
2019-01-20T10:24:23.304Z,36.50
2019-01-20T10:25:23.331Z,36.20
2019-01-20T10:26:23.353Z,36.40
2019-01-20T10:27:23.378Z,36.60
2019-01-20T10:28:23.403Z,35.30
2019-01-20T10:29:23.430Z,37.40
2019-01-20T10:30:23.455Z,37.60
2019-01-20T10:31:23.478Z,38.40
2019-01-20T10:32:23.505Z,37.30
2019-01-20T10:33:23.529Z,37.60
2019-01-20T10:34:23.555Z,36.10
2019-01-20T10:35:23.577Z,38.60
2019-01-20T10:36:23.602Z,42.60
2019-01-20T10:37:23.629Z,40.70
2019-01-20T10:38:23.654Z,39.90
2019-01-20T10:39:23.678Z,41.90
2019-01-20T10:40:23.703Z,42.50
2019-01-20T10:41:23.729Z,40.10
2019-01-20T10:42:23.750Z,38.20
2019-01-20T10:43:23.778Z,39.00
2019-01-20T10:44:23.802Z,38.30
2019-01-20T10:45:23.826Z,38.10
2019-01-20T10:46:23.852Z,40.40
2019-01-20T10:47:23.877Z,39.90
2019-01-20T10:48:23.904Z,40.00
2019-01-20T10:49:23.927Z,39.90
2019-01-20T10:50:23.953Z,38.20
2019-01-20T10:51:23.976Z,38.40
2019-01-20T10:52:24.796Z,38.90
2019-01-20T10:53:24.030Z,39.90
2019-01-20T10:54:24.060Z,40.60
2019-01-20T10:55:24.076Z,39.90
2019-01-20T10:56:24.102Z,39.10
2019-01-20T10:57:24.129Z,37.70
2019-01-20T10:58:24.153Z,37.40
2019-01-20T10:59:24.179Z,39.90
2019-01-20T11:00:24.209Z,39.80
2019-01-20T11:01:24.232Z,38.60
2019-01-20T11:02:24.255Z,37.40
2019-01-20T11:03:24.281Z,37.80
2019-01-20T11:04:24.307Z,37.60
2019-01-20T11:05:30.140Z,38.30
2019-01-20T11:06:24.360Z,38.60
2019-01-20T11:07:24.386Z,38.70
2019-01-20T11:08:24.414Z,38.80
2019-01-20T11:09:24.439Z,38.80
2019-01-20T11:10:24.464Z,38.50
2019-01-20T11:11:24.491Z,39.10
2019-01-20T11:12:24.517Z,35.00
2019-01-20T11:13:24.544Z,36.50
2019-01-20T11:14:24.571Z,37.20
2019-01-20T11:15:24.599Z,38.30
2019-01-20T11:16:24.625Z,37.60
2019-01-20T11:17:24.654Z,37.30
2019-01-20T11:18:24.679Z,39.70
2019-01-20T11:19:24.707Z,36.40
2019-01-20T11:20:24.739Z,36.10
2019-01-20T11:21:24.765Z,37.10
2019-01-20T11:22:24.789Z,38.80
2019-01-20T11:23:24.818Z,39.60
2019-01-20T11:24:24.848Z,37.90
2019-01-20T11:25:24.876Z,36.10
2019-01-20T11:26:24.903Z,37.40
2019-01-20T11:27:24.934Z,35.80
2019-01-20T11:28:24.960Z,35.00
2019-01-20T11:29:24.987Z,35.40
2019-01-20T11:30:25.014Z,34.50
2019-01-20T11:31:25.046Z,35.80
2019-01-20T11:32:25.072Z,35.00
2019-01-20T11:33:25.100Z,34.80
2019-01-20T11:34:25.128Z,34.60
2019-01-20T11:35:25.157Z,32.80
2019-01-20T11:36:25.184Z,32.50
2019-01-20T11:37:25.212Z,32.20
2019-01-20T11:38:25.240Z,32.10
2019-01-20T11:39:25.267Z,33.10
2019-01-20T11:40:25.305Z,33.80
2019-01-20T11:41:25.324Z,32.30
2019-01-20T11:42:25.350Z,33.00
2019-01-20T11:43:25.377Z,33.90
2019-01-20T11:44:25.408Z,35.60
2019-01-20T11:45:25.435Z,35.50
2019-01-20T11:46:25.459Z,32.90
2019-01-20T11:47:25.485Z,33.50
2019-01-20T11:48:25.513Z,33.90
2019-01-20T11:49:25.543Z,35.90
2019-01-20T11:50:25.567Z,35.30
2019-01-20T11:51:25.593Z,33.40
2019-01-20T11:52:25.621Z,35.00
2019-01-20T11:53:25.648Z,36.40
2019-01-20T11:54:25.675Z,35.30
2019-01-20T11:55:25.703Z,36.20
2019-01-20T11:56:25.728Z,34.50
2019-01-20T11:57:25.755Z,35.90
2019-01-20T11:58:25.782Z,36.60
2019-01-20T11:59:25.816Z,36.30
2019-01-20T12:00:25.855Z,38.10
2019-01-20T12:01:25.862Z,34.40
2019-01-20T12:02:25.888Z,34.70
2019-01-20T12:03:25.914Z,35.70
2019-01-20T12:04:25.941Z,34.50
2019-01-20T12:05:25.968Z,34.80
2019-01-20T12:06:25.998Z,35.80
2019-01-20T12:07:26.020Z,35.30
2019-01-20T12:08:30.511Z,35.00
2019-01-20T12:09:26.076Z,35.20
2019-01-20T12:10:26.100Z,35.90
2019-01-20T12:11:26.126Z,35.00
2019-01-20T12:12:26.154Z,34.50
2019-01-20T12:13:26.475Z,34.50
2019-01-20T12:14:26.206Z,34.60
2019-01-20T12:15:26.232Z,34.20
2019-01-20T12:16:26.262Z,34.20
2019-01-20T12:17:26.285Z,35.50
2019-01-20T12:18:26.310Z,34.50
2019-01-20T12:19:26.337Z,35.30
2019-01-20T12:20:26.363Z,34.50
2019-01-20T12:21:26.389Z,34.70
2019-01-20T12:22:26.420Z,36.10
2019-01-20T12:23:26.441Z,35.70
2019-01-20T12:24:26.473Z,35.10
2019-01-20T12:25:26.492Z,36.40
2019-01-20T12:26:26.518Z,36.80
2019-01-20T12:27:26.543Z,37.00
2019-01-20T12:28:26.570Z,37.70
2019-01-20T12:29:26.597Z,38.30
2019-01-20T12:30:26.622Z,37.70
2019-01-20T12:31:26.651Z,39.00
2019-01-20T12:32:26.672Z,37.70
2019-01-20T12:33:26.697Z,40.50
2019-01-20T12:34:26.727Z,39.70
2019-01-20T12:35:26.748Z,39.10
2019-01-20T12:36:26.775Z,39.30
2019-01-20T12:37:26.799Z,39.40
2019-01-20T12:38:26.826Z,39.50
2019-01-20T12:39:26.880Z,40.60
2019-01-20T12:40:26.876Z,39.80
2019-01-20T12:41:26.903Z,40.20
2019-01-20T12:42:26.927Z,40.30
2019-01-20T12:43:26.952Z,39.50
2019-01-20T12:44:31.390Z,39.50
2019-01-20T12:45:27.003Z,39.50
2019-01-20T12:46:27.028Z,39.30
2019-01-20T12:47:27.056Z,39.70
2019-01-20T12:48:27.082Z,38.80
2019-01-20T12:49:27.105Z,39.60
2019-01-20T12:50:27.132Z,39.70
2019-01-20T12:51:28.595Z,41.10
2019-01-20T12:52:27.181Z,40.60